Terminal Aerodrome Forecast
Issued by NWS

Home | Current Version | Previous Version | Text Only | Print | Product List | Glossary On
Versions: 1 2 3 4 5 6 7 8 9 10 11 12 13 14 15 16 17 18 19 20 21 22 23 24 25 26 27 28 29 30 31 32 33 34 35 36 37 38 39 40 41 42 43 44 45 46 47 48 49 50
000
FTUS43 KLOT 050520
TAFGYY
TAF
KGYY 050520Z 0506/0606 36017G28KT P6SM VCSH SCT025 BKN040 OVC100
      TEMPO 0506/0508 4SM -RA OVC025
     FM050800 01014G24KT P6SM VCSH BKN020 OVC035
     FM051400 36012G23KT P6SM BKN035
     FM051800 02011G18KT P6SM FEW040
     FM060100 VRB03KT P6SM SCT250=

USA.gov is the U.S. government's official web portal to all federal, state and local government web resources and services.